Time Latitude Longitude Accuracy (66% radius in meters) Altitude (meters) Speed (km/hour) Bearing (degrees) Battery (%) GPS flag
07:23:29 57.203177 60.110099 3 308 0 0 91 1 delete
07:23:17 57.203268 60.110062 3 308 1.7889941930771 166.80000305176 91 1 delete
07:23:10 57.203374 60.110038 3 312 1.9704060554504 168.19999694824 91 1 delete
07:23:06 57.203463 60.110019 3 312 2.1360008716583 164.5 91 1 delete
07:23:02 57.203563 60.110053 3 315 3.0661537647247 180.69999694824 91 1 delete
07:22:59 57.203661 60.110098 3 315 3.9960603713989 188 91 1 delete
07:22:56 57.203771 60.110166 3 314 4.1296124458313 200.30000305176 91 1 delete
07:22:53 57.203883 60.110242 3 311 5.0619068145752 211.89999389648 91 1 delete
07:22:51 57.203966 60.110327 3 311 4.6284770965576 207.80000305176 91 1 delete
07:22:49 57.204043 60.110415 3 311 3.9745690822601 197.80000305176 91 1 delete
07:22:46 57.204151 60.110495 3 311 3.4757590293884 200.60000610352 91 1 delete
07:22:43 57.204253 60.110566 3 313 2.530237197876 209.39999389648 91 1 delete
07:22:39 57.204350 60.110656 3 312 3.0106644630432 209 91 1 delete
07:22:36 57.204431 60.110732 3 312 2.722149848938 211.60000610352 91 1 delete
07:22:32 57.204518 60.110833 3 309 3.0800161361694 216.39999389648 91 1 delete
07:22:29 57.204595 60.110920 3 309 2.9561123847961 208.39999389648 91 1 delete
07:22:25 57.204690 60.111000 3 310 2.3055584430695 219.5 91 1 delete
07:22:19 57.204777 60.111095 3 311 0.81999999284744 205.30000305176 91 1 delete
07:22:09 57.204858 60.111177 3 310 2.6027677059174 194.89999389648 91 1 delete
07:22:05 57.204946 60.111234 3 306 2.9309728145599 195.89999389648 91 1 delete
07:22:00 57.205073 60.111273 3 302 3.684901714325 206.30000305176 91 1 delete
07:21:57 57.205166 60.111331 3 301 4.0893154144287 192.89999389648 91 1 delete
07:21:54 57.205270 60.111357 3 297 3.6338548660278 184.69999694824 91 1 delete
07:21:51 57.205373 60.111379 3 294 2.960000038147 175.19999694824 91 1 delete
07:21:47 57.205483 60.111353 3 293 2.4283740520477 174.5 91 1 delete
07:21:43 57.205577 60.111325 3 292 2.5268557071686 159.30000305176 91 1 delete
07:21:38 57.205685 60.111276 3 289 1.5785119533539 196.5 91 1 delete
07:21:31 57.205783 60.111333 3 289 3.1819019317627 201.5 91 1 delete
07:21:27 57.205882 60.111429 3 290 2.5676643848419 210.80000305176 91 1 delete
07:21:23 57.205965 60.111539 3 288 4.4499998092651 223.5 91 1 delete
07:21:20 57.206051 60.111713 3 288 6.1406593322754 229.80000305176 91 1 delete
07:21:18 57.206119 60.111869 3 289 7.1155114173889 231.80000305176 91 1 delete
07:21:16 57.206195 60.112066 3 290 7.8805141448975 243.69999694824 91 1 delete
07:21:14 57.206240 60.112314 3 292 8.6067190170288 253.89999389648 91 1 delete
07:21:12 57.206277 60.112572 3 293 8.9884643554688 259.29998779297 91 1 delete
07:21:10 57.206298 60.112866 3 295 9.1852054595947 264 91 1 delete
07:21:08 57.206307 60.113164 3 297 9.6269874572754 269.39999389648 91 1 delete
07:21:06 57.206308 60.113488 3 299 9.8149938583374 288.60000610352 91 1 delete
07:21:05 57.206275 60.113648 3 301 9.4906740188599 304.60000610352 91 1 delete
07:21:03 57.206171 60.113896 4 301 9.2806510925293 324.79998779297 91 1 delete
07:21:01 57.206027 60.114065 3 302 9.3185892105103 326.70001220703 91 1 delete
07:20:59 57.205881 60.114245 3 303 8.9140329360962 323.70001220703 91 1 delete
07:20:57 57.205760 60.114431 3 305 8.8776407241821 315.89999389648 91 1 delete
07:20:55 57.205638 60.114648 3 306 9.2601356506348 309.10000610352 91 1 delete
07:20:53 57.205532 60.114884 3 306 9.9574937820435 307.89999389648 91 1 delete
07:20:51 57.205426 60.115146 3 307 10.127787590027 308.10000610352 91 1 delete
07:20:50 57.205366 60.115276 3 308 9.860613822937 303.79998779297 91 1 delete
07:20:49 57.205314 60.115413 3 307 9.8663063049316 301.5 91 1 delete
07:20:47 57.205223 60.115716 3 310 9.7204370498657 294.5 91 1 delete
07:20:45 57.205157 60.116013 3 311 9.6529846191406 280.20001220703 91 1 delete